Time;durP1;ratioP1;P1;durP2;ratioP2;P2;SDS_P1;SDS_P2;PMS_P1;PMS_P2;Temp;Humidity;BMP_temperature;BMP_pressure;BME280_temperature;BME280_humidity;BME280_pressure;Samples;Min_cycle;Max_cycle;Signal;HPM_P1;HPM_P2
2021/08/30 00:01:36;;;;;;;9.00;6.22;;;17.00;99.80;;;;;;5052235;28;20025;-63
2021/08/30 00:04:02;;;;;;;9.82;5.90;;;17.00;99.80;;;;;;5034188;28;20021;-63
2021/08/30 00:06:27;;;;;;;7.72;5.90;;;17.00;99.90;;;;;;5052117;28;20025;-63
2021/08/30 00:08:53;;;;;;;7.22;5.25;;;17.00;99.90;;;;;;5036636;28;20025;-63
2021/08/30 00:11:19;;;;;;;8.77;6.80;;;17.00;99.90;;;;;;5055856;28;20075;-63
2021/08/30 00:13:46;;;;;;;9.02;5.60;;;17.00;99.90;;;;;;5055851;28;20053;-62
2021/08/30 00:16:11;;;;;;;6.65;5.53;;;17.00;99.90;;;;;;5037991;28;20094;-62
2021/08/30 00:18:37;;;;;;;9.63;7.00;;;16.90;99.90;;;;;;5037987;28;20032;-62
2021/08/30 00:21:02;;;;;;;11.90;7.03;;;16.90;99.90;;;;;;5037841;28;20535;-63
2021/08/30 00:23:28;;;;;;;7.78;6.38;;;16.90;99.90;;;;;;5037384;28;20036;-62
2021/08/30 00:25:53;;;;;;;13.25;6.57;;;16.90;99.90;;;;;;5037915;28;20036;-63
2021/08/30 00:28:19;;;;;;;9.60;6.38;;;16.90;99.90;;;;;;5055613;28;20028;-63
2021/08/30 00:30:45;;;;;;;6.32;5.10;;;16.80;99.90;;;;;;5037659;28;20428;-62
2021/08/30 00:33:10;;;;;;;9.85;7.00;;;16.80;99.90;;;;;;5055485;28;20033;-62
2021/08/30 00:35:37;;;;;;;13.52;7.82;;;16.80;99.90;;;;;;5037451;28;20025;-62
2021/08/30 00:38:03;;;;;;;11.48;7.40;;;16.70;99.90;;;;;;5037329;28;20439;-63
2021/08/30 00:40:29;;;;;;;11.00;7.18;;;16.60;99.90;;;;;;5055281;28;20370;-63
2021/08/30 00:42:54;;;;;;;10.23;7.05;;;16.60;99.90;;;;;;5037390;28;20024;-63
2021/08/30 00:45:20;;;;;;;11.75;7.53;;;16.60;99.90;;;;;;5055350;28;20035;-63
2021/08/30 00:47:46;;;;;;;10.43;7.07;;;16.60;99.90;;;;;;5055135;28;20385;-62
2021/08/30 00:50:14;;;;;;;9.45;6.95;;;16.60;99.90;;;;;;5037392;28;20029;-62
2021/08/30 00:52:42;;;;;;;8.38;6.60;;;16.50;99.90;;;;;;5037081;28;20035;-62
2021/08/30 00:55:07;;;;;;;10.20;7.47;;;16.50;99.90;;;;;;5054973;28;20067;-62
2021/08/30 00:57:34;;;;;;;9.30;6.72;;;16.50;99.90;;;;;;5055203;28;20494;-63
2021/08/30 00:59:59;;;;;;;11.05;7.05;;;16.50;99.90;;;;;;5055118;28;20021;-63
2021/08/30 01:02:25;;;;;;;8.30;6.25;;;16.50;99.90;;;;;;5037120;28;20037;-63
2021/08/30 01:04:51;;;;;;;10.07;6.70;;;16.50;99.90;;;;;;5054978;28;20488;-62
2021/08/30 01:07:27;;;;;;;10.05;6.20;;;16.50;99.90;;;;;;5054860;28;20040;-63
2021/08/30 01:09:52;;;;;;;7.68;5.45;;;16.50;99.90;;;;;;5037224;28;20112;-63
2021/08/30 01:12:26;;;;;;;8.55;6.47;;;16.50;99.90;;;;;;5036846;28;20120;-62
2021/08/30 01:15:01;;;;;;;7.80;5.82;;;16.50;99.90;;;;;;5037126;28;20063;-63
2021/08/30 01:17:30;;;;;;;10.63;6.15;;;16.50;99.90;;;;;;5054697;28;20108;-62
2021/08/30 01:20:24;;;;;;;10.57;6.37;;;16.50;99.90;;;;;;5053556;28;20029;-62
2021/08/30 01:22:52;;;;;;;8.18;5.90;;;16.50;99.90;;;;;;5054321;28;20025;-63
2021/08/30 01:25:20;;;;;;;9.20;5.85;;;16.40;99.90;;;;;;5036872;28;20035;-62
2021/08/30 01:28:20;;;;;;;7.45;5.72;;;16.40;99.90;;;;;;5054436;28;20099;-63
2021/08/30 01:30:49;;;;;;;8.73;6.25;;;16.40;99.90;;;;;;5054625;28;20118;-63
2021/08/30 01:33:15;;;;;;;8.55;6.00;;;16.40;99.90;;;;;;5036592;28;20156;-62
2021/08/30 01:35:41;;;;;;;6.20;5.35;;;16.40;99.90;;;;;;5054509;28;20025;-63
2021/08/30 01:38:08;;;;;;;8.00;5.28;;;16.50;99.90;;;;;;5036534;28;20028;-62
2021/08/30 01:40:35;;;;;;;8.13;5.30;;;16.50;99.90;;;;;;5054345;28;20167;-63
2021/08/30 01:43:01;;;;;;;6.47;4.72;;;16.50;99.90;;;;;;5053939;28;20071;-63
2021/08/30 01:45:30;;;;;;;9.98;5.40;;;16.60;99.90;;;;;;5054280;28;20428;-62
2021/08/30 01:48:00;;;;;;;10.95;5.90;;;16.60;99.90;;;;;;5036378;28;20025;-63
2021/08/30 01:50:27;;;;;;;8.98;5.95;;;16.60;99.90;;;;;;5054255;28;20108;-62
2021/08/30 01:52:54;;;;;;;8.23;5.90;;;16.60;99.90;;;;;;5053932;28;20108;-62
2021/08/30 02:00:44;;;;;;;9.50;5.88;;;16.60;99.90;;;;;;5054092;28;20428;-63
2021/08/30 02:03:24;;;;;;;6.90;5.90;;;16.70;99.90;;;;;;5053664;28;20067;-63
2021/08/30 02:05:53;;;;;;;9.32;6.45;;;16.70;99.90;;;;;;5036094;28;20029;-62
2021/08/30 02:08:22;;;;;;;7.03;5.45;;;16.70;99.90;;;;;;5053587;28;20021;-62
2021/08/30 02:10:49;;;;;;;7.32;5.50;;;16.70;99.90;;;;;;5053846;28;20048;-63
2021/08/30 02:13:16;;;;;;;7.82;5.95;;;16.60;99.90;;;;;;5053413;28;20041;-62
2021/08/30 02:15:43;;;;;;;8.60;6.05;;;16.70;99.90;;;;;;5053549;28;20020;-63
2021/08/30 02:18:52;;;;;;;6.32;5.47;;;16.70;99.90;;;;;;5053572;28;20029;-62
2021/08/30 02:21:35;;;;;;;8.27;6.03;;;16.80;99.90;;;;;;5042640;28;20137;-63
2021/08/30 02:24:09;;;;;;;7.28;4.90;;;16.70;99.90;;;;;;5053338;28;20495;-63
2021/08/30 02:27:06;;;;;;;7.05;5.57;;;16.60;99.90;;;;;;5035694;28;20229;-63
2021/08/30 02:29:52;;;;;;;8.25;5.78;;;16.80;99.90;;;;;;5035676;28;20021;-62
2021/08/30 02:32:19;;;;;;;8.30;6.07;;;16.70;99.90;;;;;;5052222;28;20037;-63
2021/08/30 02:34:50;;;;;;;9.25;7.30;;;16.70;99.90;;;;;;5053296;28;20036;-62
2021/08/30 02:37:16;;;;;;;9.43;7.43;;;16.70;99.90;;;;;;5035405;28;20035;-62
2021/08/30 02:39:47;;;;;;;13.38;6.60;;;16.70;99.90;;;;;;5035344;28;20021;-63
2021/08/30 02:42:14;;;;;;;8.65;6.43;;;16.70;99.90;;;;;;5053129;28;20124;-62
2021/08/30 02:44:40;;;;;;;7.10;6.15;;;16.80;99.90;;;;;;5053191;28;20108;-62
2021/08/30 02:47:06;;;;;;;8.07;5.97;;;16.70;99.90;;;;;;5052990;28;20489;-62
2021/08/30 02:49:32;;;;;;;7.80;6.15;;;16.80;99.90;;;;;;5035345;28;20036;-62
2021/08/30 02:52:04;;;;;;;9.40;7.20;;;16.80;99.90;;;;;;5035065;28;20027;-63
2021/08/30 02:54:32;;;;;;;7.70;5.97;;;16.80;99.90;;;;;;5052765;28;20021;-63
2021/08/30 02:57:01;;;;;;;8.73;7.13;;;16.80;99.90;;;;;;5034989;28;20423;-62
2021/08/30 02:59:28;;;;;;;8.90;6.63;;;16.80;99.90;;;;;;5052750;28;20033;-63
2021/08/30 03:01:53;;;;;;;11.45;7.38;;;16.80;99.90;;;;;;5052675;28;20052;-62
2021/08/30 03:04:19;;;;;;;9.20;6.55;;;16.80;99.90;;;;;;5034983;28;20451;-63
2021/08/30 03:06:46;;;;;;;9.48;6.75;;;16.80;99.90;;;;;;5052855;28;20021;-62
2021/08/30 03:09:12;;;;;;;10.02;7.55;;;16.80;99.90;;;;;;5052606;28;20057;-62
2021/08/30 03:11:38;;;;;;;10.10;6.95;;;16.80;99.90;;;;;;5052771;28;20028;-63
2021/08/30 03:14:08;;;;;;;11.43;7.43;;;16.80;99.90;;;;;;5052427;28;20100;-62
2021/08/30 03:16:35;;;;;;;11.00;7.07;;;16.80;99.90;;;;;;5052737;28;20029;-62
2021/08/30 03:19:02;;;;;;;12.57;7.80;;;16.80;99.90;;;;;;5052482;28;20033;-63
2021/08/30 03:21:28;;;;;;;10.82;7.75;;;16.80;99.90;;;;;;5034452;28;20036;-63
2021/08/30 03:23:55;;;;;;;7.88;6.55;;;16.80;99.90;;;;;;5034574;28;20408;-63
2021/08/30 03:26:23;;;;;;;8.95;7.25;;;16.80;99.90;;;;;;5034622;28;20018;-62
2021/08/30 03:28:51;;;;;;;9.23;6.78;;;16.80;99.90;;;;;;5052081;28;20108;-62
2021/08/30 03:31:17;;;;;;;11.05;7.53;;;16.80;99.90;;;;;;5052302;28;20091;-62
2021/08/30 03:33:43;;;;;;;9.32;7.40;;;16.80;99.90;;;;;;5052372;28;20107;-62
2021/08/30 03:36:10;;;;;;;8.13;6.88;;;16.80;99.90;;;;;;5052453;28;20039;-62
2021/08/30 03:38:37;;;;;;;8.68;7.15;;;16.80;99.90;;;;;;5034495;28;20033;-62
2021/08/30 03:41:04;;;;;;;9.65;7.72;;;16.80;99.90;;;;;;5052418;28;20083;-62
2021/08/30 03:43:29;;;;;;;10.25;7.75;;;16.80;99.90;;;;;;5054124;28;20049;-63
2021/08/30 03:45:56;;;;;;;13.43;9.38;;;16.80;99.90;;;;;;5056309;28;20542;-63
2021/08/30 03:48:23;;;;;;;13.05;9.25;;;16.80;99.90;;;;;;5056428;28;20366;-62
2021/08/30 03:50:50;;;;;;;9.85;8.00;;;16.80;99.90;;;;;;5038395;28;20017;-62
2021/08/30 03:53:18;;;;;;;11.93;8.55;;;16.80;99.90;;;;;;5038171;28;20555;-62
2021/08/30 03:55:44;;;;;;;14.13;8.80;;;16.80;99.90;;;;;;5038105;28;20111;-63
2021/08/30 03:58:11;;;;;;;12.20;8.32;;;16.80;99.90;;;;;;5038377;28;20031;-62
2021/08/30 04:00:38;;;;;;;10.85;8.80;;;16.80;99.90;;;;;;5055896;28;20369;-63
2021/08/30 04:03:04;;;;;;;11.88;8.57;;;16.80;99.90;;;;;;5055947;28;20369;-63
2021/08/30 04:05:31;;;;;;;10.95;8.45;;;16.80;99.90;;;;;;5056260;28;20040;-62
2021/08/30 04:08:01;;;;;;;10.30;7.60;;;16.80;99.90;;;;;;5038086;28;20087;-62
2021/08/30 04:10:48;;;;;;;10.98;7.70;;;16.80;99.90;;;;;;5055875;28;20032;-63
2021/08/30 04:13:57;;;;;;;10.07;8.10;;;16.80;99.90;;;;;;5037946;28;20079;-62
2021/08/30 04:16:23;;;;;;;8.32;7.32;;;16.80;99.90;;;;;;5055101;28;20033;-62
2021/08/30 04:18:48;;;;;;;9.27;7.47;;;16.80;99.90;;;;;;5055607;28;20562;-63
2021/08/30 04:21:14;;;;;;;10.20;6.75;;;16.80;99.90;;;;;;5055439;28;20526;-62
2021/08/30 04:23:39;;;;;;;11.95;8.73;;;16.80;99.90;;;;;;5055710;28;20029;-63
2021/08/30 04:26:05;;;;;;;14.70;9.07;;;16.80;99.90;;;;;;5037556;28;20370;-62
2021/08/30 04:28:30;;;;;;;13.50;9.65;;;16.70;99.90;;;;;;5037730;28;20035;-62
2021/08/30 04:30:56;;;;;;;12.10;9.52;;;16.80;99.90;;;;;;5037432;28;20025;-63
2021/08/30 04:33:23;;;;;;;13.68;9.73;;;16.80;99.90;;;;;;5037517;28;20025;-62
2021/08/30 04:35:49;;;;;;;10.40;7.68;;;16.80;99.90;;;;;;5037677;28;20025;-63
2021/08/30 04:38:14;;;;;;;10.80;8.82;;;16.80;99.90;;;;;;5055357;28;20025;-63
2021/08/30 04:40:40;;;;;;;12.15;8.18;;;16.80;99.90;;;;;;5055141;28;20029;-62
2021/08/30 04:43:09;;;;;;;15.02;9.52;;;16.80;99.90;;;;;;5054286;28;20076;-63
2021/08/30 04:45:36;;;;;;;13.30;10.15;;;16.80;99.90;;;;;;5054855;28;20060;-62
2021/08/30 04:48:01;;;;;;;12.25;9.50;;;16.80;99.90;;;;;;5037118;28;20021;-62
2021/08/30 04:50:27;;;;;;;12.20;9.63;;;16.80;99.90;;;;;;5037393;28;20028;-63
2021/08/30 04:52:52;;;;;;;13.02;9.68;;;16.80;99.90;;;;;;5055333;28;20512;-62
2021/08/30 04:55:18;;;;;;;12.75;9.07;;;16.80;99.90;;;;;;5054625;28;20496;-62
2021/08/30 04:57:43;;;;;;;15.57;10.48;;;16.80;99.90;;;;;;5037264;28;20051;-62
2021/08/30 05:00:10;;;;;;;14.00;10.10;;;16.80;99.90;;;;;;5037076;28;20033;-62
2021/08/30 05:02:35;;;;;;;15.52;11.13;;;16.80;99.90;;;;;;5036815;28;20396;-62
2021/08/30 05:05:01;;;;;;;13.93;10.52;;;16.90;99.90;;;;;;5037057;28;20023;-63
2021/08/30 05:07:26;;;;;;;17.10;11.90;;;16.90;99.90;;;;;;5037188;28;20025;-63
2021/08/30 05:09:52;;;;;;;17.08;12.07;;;16.90;99.90;;;;;;5035604;28;20052;-62
2021/08/30 05:12:17;;;;;;;15.93;11.73;;;16.90;99.90;;;;;;5053013;28;20326;-62
2021/08/30 05:14:43;;;;;;;14.52;11.98;;;16.90;99.90;;;;;;5036419;28;20017;-63
2021/08/30 05:17:08;;;;;;;20.23;12.13;;;16.90;99.90;;;;;;5053908;28;20070;-63
2021/08/30 05:19:34;;;;;;;18.80;13.20;;;16.90;99.90;;;;;;5054025;28;20025;-63
2021/08/30 05:21:59;;;;;;;15.43;10.98;;;16.90;99.90;;;;;;5052626;28;20021;-62
2021/08/30 05:24:25;;;;;;;16.08;11.43;;;16.90;99.90;;;;;;5036187;28;20028;-62
2021/08/30 05:26:50;;;;;;;17.92;11.27;;;17.00;99.90;;;;;;5036134;28;20070;-63
2021/08/30 05:29:16;;;;;;;15.80;10.98;;;17.00;99.90;;;;;;5053852;28;20025;-63
2021/08/30 05:31:43;;;;;;;14.43;10.68;;;17.00;99.90;;;;;;5053602;28;20024;-62
2021/08/30 05:34:09;;;;;;;16.15;11.63;;;17.00;99.90;;;;;;5035881;28;20021;-63
2021/08/30 05:36:34;;;;;;;19.90;11.23;;;17.00;99.90;;;;;;5053770;28;20025;-62
2021/08/30 05:39:00;;;;;;;14.30;10.25;;;17.00;99.90;;;;;;5053611;28;20021;-62
2021/08/30 05:41:25;;;;;;;15.40;10.50;;;17.00;99.90;;;;;;5053715;28;20113;-62
2021/08/30 05:43:51;;;;;;;18.52;10.68;;;17.10;99.90;;;;;;5052477;28;20025;-63
2021/08/30 05:46:16;;;;;;;18.80;11.13;;;17.10;99.90;;;;;;5050225;28;20045;-63
2021/08/30 05:48:48;;;;;;;16.65;11.95;;;17.10;99.90;;;;;;5053264;28;20067;-63
2021/08/30 05:51:13;;;;;;;21.90;12.23;;;17.10;99.90;;;;;;5035233;28;20016;-63
2021/08/30 05:53:40;;;;;;;17.25;11.90;;;17.10;99.90;;;;;;5035233;28;20500;-63
2021/08/30 05:56:06;;;;;;;19.83;12.90;;;17.10;99.90;;;;;;5034991;28;20072;-63
2021/08/30 05:58:32;;;;;;;17.52;12.00;;;17.10;99.90;;;;;;5052774;28;20057;-62
2021/08/30 06:00:57;;;;;;;18.20;11.27;;;17.10;99.90;;;;;;5035007;28;20492;-63
2021/08/30 06:03:23;;;;;;;17.65;12.25;;;17.20;99.90;;;;;;5052615;28;20124;-63
2021/08/30 06:05:48;;;;;;;17.27;12.70;;;17.20;99.90;;;;;;5031685;28;20108;-63
2021/08/30 06:08:14;;;;;;;16.00;11.10;;;17.20;99.90;;;;;;5052563;28;20018;-63
2021/08/30 06:10:39;;;;;;;16.08;11.55;;;17.30;99.90;;;;;;5035094;28;20059;-62
2021/08/30 06:13:12;;;;;;;19.92;14.00;;;17.30;99.90;;;;;;5047151;28;20025;-62
2021/08/30 06:15:38;;;;;;;17.75;12.80;;;17.30;99.90;;;;;;5052436;28;20025;-62
2021/08/30 06:18:03;;;;;;;22.08;11.20;;;17.30;99.90;;;;;;5052399;28;20025;-62
2021/08/30 06:20:29;;;;;;;17.10;12.00;;;17.40;99.90;;;;;;5034740;28;20036;-63
2021/08/30 06:22:55;;;;;;;16.25;11.57;;;17.40;99.90;;;;;;5052345;28;20017;-63
2021/08/30 06:25:20;;;;;;;18.27;11.68;;;17.50;99.90;;;;;;5048762;28;20488;-63
2021/08/30 06:27:46;;;;;;;13.73;9.98;;;17.50;99.90;;;;;;5052274;28;20032;-63
2021/08/30 06:30:12;;;;;;;16.55;11.23;;;17.50;99.90;;;;;;5052378;28;20053;-63
2021/08/30 06:32:38;;;;;;;17.77;12.35;;;17.50;99.90;;;;;;5056042;28;20114;-63
2021/08/30 06:35:03;;;;;;;13.98;10.80;;;17.60;99.90;;;;;;5049818;28;20388;-63
2021/08/30 06:37:29;;;;;;;18.67;11.82;;;17.60;99.90;;;;;;5031827;28;20021;-63
2021/08/30 06:39:55;;;;;;;15.68;10.68;;;17.60;99.90;;;;;;5053387;28;20033;-63
2021/08/30 06:42:21;;;;;;;17.88;12.45;;;17.60;99.90;;;;;;5048143;28;20378;-63
2021/08/30 06:45:03;;;;;;;19.40;11.20;;;17.70;99.90;;;;;;5048712;28;20029;-63
2021/08/30 06:47:29;;;;;;;15.25;11.10;;;17.80;99.90;;;;;;5051088;28;20021;-65
2021/08/30 06:49:54;;;;;;;16.33;11.10;;;17.80;99.90;;;;;;5042524;28;20727;-66
2021/08/30 06:52:20;;;;;;;16.05;10.88;;;17.90;99.90;;;;;;5024211;28;20047;-67
2021/08/30 06:54:45;;;;;;;16.60;10.07;;;18.00;99.90;;;;;;5050487;28;20091;-66
2021/08/30 06:57:11;;;;;;;17.38;10.43;;;18.10;99.90;;;;;;5027998;28;20917;-65
2021/08/30 06:59:36;;;;;;;17.60;10.65;;;18.10;99.90;;;;;;5048212;28;20017;-67
2021/08/30 07:02:02;;;;;;;18.58;11.05;;;18.10;99.90;;;;;;5050745;28;20480;-67
2021/08/30 07:04:27;;;;;;;15.57;10.80;;;18.20;99.90;;;;;;5051399;28;20017;-67
2021/08/30 07:06:53;;;;;;;18.40;11.90;;;18.20;99.90;;;;;;5049510;28;20424;-66
2021/08/30 07:09:18;;;;;;;13.57;9.85;;;18.20;99.90;;;;;;5031074;28;20021;-66
2021/08/30 07:11:44;;;;;;;17.75;11.50;;;18.30;99.90;;;;;;5051034;28;20131;-66
2021/08/30 07:14:10;;;;;;;15.63;10.48;;;18.40;99.90;;;;;;5046033;28;20605;-66
2021/08/30 07:16:35;;;;;;;17.80;11.90;;;18.50;99.90;;;;;;5021613;28;20483;-66
2021/08/30 07:19:01;;;;;;;17.58;11.63;;;18.50;99.90;;;;;;5012480;28;20468;-66
2021/08/30 07:21:28;;;;;;;17.90;12.00;;;18.60;99.90;;;;;;5051054;28;20025;-67
2021/08/30 07:23:55;;;;;;;22.23;12.85;;;18.60;99.90;;;;;;5050766;28;20025;-67
2021/08/30 07:26:21;;;;;;;16.92;12.63;;;18.70;99.90;;;;;;5044473;28;20025;-67
2021/08/30 07:28:47;;;;;;;19.52;13.95;;;18.70;99.90;;;;;;5050527;28;20032;-66
2021/08/30 07:31:14;;;;;;;16.33;12.00;;;18.80;99.90;;;;;;5050331;28;20021;-66
2021/08/30 07:33:40;;;;;;;15.68;11.13;;;18.90;99.80;;;;;;5030890;28;20064;-67
2021/08/30 07:36:06;;;;;;;19.63;13.15;;;18.90;99.70;;;;;;5032856;28;20025;-67
2021/08/30 07:38:31;;;;;;;16.65;12.40;;;19.00;99.60;;;;;;5046621;28;20028;-67
2021/08/30 07:40:57;;;;;;;19.13;12.38;;;19.00;99.50;;;;;;5050317;28;20044;-67
2021/08/30 07:43:23;;;;;;;18.30;12.70;;;19.10;99.40;;;;;;5049933;28;20070;-67
2021/08/30 07:45:48;;;;;;;20.77;13.57;;;19.10;99.20;;;;;;5050770;28;20033;-67
2021/08/30 07:48:14;;;;;;;17.13;12.63;;;19.20;99.20;;;;;;5050596;28;20029;-67
2021/08/30 07:50:40;;;;;;;17.63;12.60;;;19.20;99.00;;;;;;5051438;28;20060;-67
2021/08/30 07:53:05;;;;;;;19.63;13.43;;;19.30;98.80;;;;;;5033506;28;20086;-67
2021/08/30 07:55:35;;;;;;;20.33;13.07;;;19.20;98.50;;;;;;5051607;28;20606;-67
2021/08/30 07:58:01;;;;;;;17.15;13.05;;;19.30;98.50;;;;;;5051407;28;20512;-67
2021/08/30 08:00:27;;;;;;;19.00;12.50;;;19.40;98.30;;;;;;5051299;28;20396;-67
2021/08/30 08:02:52;;;;;;;14.18;10.90;;;19.40;98.20;;;;;;5051403;28;20112;-67
2021/08/30 08:05:18;;;;;;;17.50;11.63;;;19.50;98.20;;;;;;5050119;28;20485;-67
2021/08/30 08:07:44;;;;;;;16.60;12.52;;;19.60;98.10;;;;;;5050668;28;20100;-67
2021/08/30 08:10:10;;;;;;;16.63;12.77;;;19.60;97.90;;;;;;5051630;28;20117;-68
2021/08/30 08:12:36;;;;;;;15.00;12.07;;;19.70;97.70;;;;;;5052099;28;20057;-66
2021/08/30 08:15:02;;;;;;;19.05;12.02;;;19.80;97.70;;;;;;5033855;28;20028;-67
2021/08/30 08:17:28;;;;;;;14.30;10.68;;;19.80;97.60;;;;;;5025780;28;20029;-66
2021/08/30 08:19:54;;;;;;;11.07;9.63;;;19.90;97.50;;;;;;5048669;28;20108;-66
2021/08/30 08:22:19;;;;;;;14.80;11.32;;;20.00;97.50;;;;;;5051190;28;20032;-65
2021/08/30 08:24:45;;;;;;;15.05;11.52;;;20.00;97.20;;;;;;5050472;28;20017;-65
2021/08/30 08:27:10;;;;;;;16.00;11.98;;;20.00;97.10;;;;;;5050719;28;20021;-65
2021/08/30 08:29:36;;;;;;;17.23;12.20;;;20.00;96.90;;;;;;5035058;28;20028;-65
2021/08/30 08:32:01;;;;;;;14.68;11.25;;;20.00;96.90;;;;;;5054739;28;20370;-65
2021/08/30 08:34:27;;;;;;;15.55;11.68;;;20.00;97.00;;;;;;5054758;28;20048;-66
2021/08/30 08:37:01;;;;;;;13.55;10.32;;;20.00;96.90;;;;;;5036806;28;20021;-66
2021/08/30 08:39:26;;;;;;;16.50;11.35;;;20.00;96.80;;;;;;5034831;28;20132;-66
2021/08/30 08:41:53;;;;;;;12.18;9.57;;;20.10;96.80;;;;;;5054340;28;20172;-66
2021/08/30 08:44:18;;;;;;;11.55;9.20;;;20.20;96.70;;;;;;5036172;28;20105;-66
2021/08/30 08:46:44;;;;;;;13.82;10.73;;;20.30;96.70;;;;;;5057389;28;20429;-66
2021/08/30 08:49:36;;;;;;;12.00;8.82;;;20.30;96.20;;;;;;5054742;28;20048;-66
2021/08/30 08:52:03;;;;;;;12.98;9.98;;;20.40;96.20;;;;;;5038533;28;20033;-66
2021/08/30 08:54:31;;;;;;;15.10;10.40;;;20.40;96.20;;;;;;5063543;28;20492;-66
2021/08/30 08:56:58;;;;;;;11.43;8.93;;;20.50;96.00;;;;;;5035974;28;20033;-65
2021/08/30 08:59:23;;;;;;;14.93;10.88;;;20.50;96.00;;;;;;5054413;28;20123;-66
2021/08/30 09:01:59;;;;;;;13.13;10.30;;;20.50;95.70;;;;;;5054326;28;20421;-66
2021/08/30 09:04:35;;;;;;;13.18;10.00;;;20.50;95.60;;;;;;5054808;28;20032;-65
2021/08/30 09:07:12;;;;;;;13.30;10.52;;;20.60;95.50;;;;;;5058726;28;20106;-66
2021/08/30 09:09:40;;;;;;;11.13;8.63;;;20.70;95.30;;;;;;5053614;28;20021;-66
2021/08/30 09:12:19;;;;;;;10.48;8.35;;;20.90;95.30;;;;;;5053379;28;20083;-66
2021/08/30 09:14:46;;;;;;;11.23;8.38;;;21.10;95.00;;;;;;5029180;28;20025;-66
2021/08/30 09:17:12;;;;;;;13.73;10.40;;;21.30;94.70;;;;;;5036436;28;20115;-66
2021/08/30 09:19:39;;;;;;;10.70;9.40;;;21.40;94.50;;;;;;5054102;28;20025;-66
2021/08/30 09:22:06;;;;;;;13.85;9.30;;;21.50;93.90;;;;;;5036095;28;20043;-66
2021/08/30 09:24:33;;;;;;;12.60;8.43;;;21.50;93.60;;;;;;5053868;28;20021;-66
2021/08/30 09:27:07;;;;;;;9.20;7.57;;;21.60;93.70;;;;;;5052731;28;20055;-66
2021/08/30 09:29:39;;;;;;;8.05;6.72;;;21.70;93.60;;;;;;5054010;28;20029;-66
2021/08/30 09:32:17;;;;;;;12.93;9.23;;;21.80;93.40;;;;;;5052622;28;20032;-66
2021/08/30 09:34:44;;;;;;;9.52;7.22;;;21.90;92.90;;;;;;5036297;28;20051;-66
2021/08/30 09:37:18;;;;;;;9.02;6.95;;;22.00;92.60;;;;;;5049614;28;20099;-66
2021/08/30 09:39:49;;;;;;;10.18;7.95;;;22.20;92.60;;;;;;5053613;28;20017;-66
2021/08/30 09:42:15;;;;;;;10.18;7.65;;;22.30;92.30;;;;;;5035130;28;20036;-67
2021/08/30 09:44:40;;;;;;;7.45;6.70;;;22.40;91.70;;;;;;5035435;28;20020;-66
2021/08/30 09:47:11;;;;;;;9.90;7.50;;;22.40;91.30;;;;;;5053626;28;20029;-66
2021/08/30 09:49:37;;;;;;;7.95;6.38;;;22.50;90.90;;;;;;5051640;28;20112;-67
2021/08/30 09:52:04;;;;;;;8.27;6.70;;;22.60;90.90;;;;;;5051504;28;20021;-66
2021/08/30 09:54:29;;;;;;;7.00;6.10;;;22.60;90.70;;;;;;5052038;28;20017;-67
2021/08/30 09:56:56;;;;;;;8.98;6.72;;;22.60;90.80;;;;;;5052694;28;20035;-67
2021/08/30 09:59:22;;;;;;;7.47;6.32;;;22.50;90.60;;;;;;5052495;28;20028;-67
2021/08/30 10:01:49;;;;;;;7.75;6.57;;;22.30;90.20;;;;;;5052667;28;20029;-67
2021/08/30 10:04:20;;;;;;;8.70;6.35;;;22.10;90.40;;;;;;5052642;28;20063;-67
2021/08/30 10:06:48;;;;;;;9.13;6.95;;;22.10;90.60;;;;;;5037299;28;20044;-67
2021/08/30 10:09:15;;;;;;;6.72;5.90;;;22.00;90.70;;;;;;5035443;28;20057;-67
2021/08/30 10:11:43;;;;;;;9.20;6.88;;;22.00;90.80;;;;;;5034870;28;20025;-66
2021/08/30 10:14:11;;;;;;;8.25;6.40;;;22.10;90.60;;;;;;5034651;28;20032;-66
2021/08/30 10:16:39;;;;;;;8.00;7.00;;;22.30;90.60;;;;;;5051848;28;20025;-66
2021/08/30 10:19:05;;;;;;;8.73;6.40;;;22.50;90.40;;;;;;5035060;28;20032;-66
2021/08/30 10:21:31;;;;;;;7.55;6.55;;;22.70;90.10;;;;;;5035189;28;20017;-67
2021/08/30 10:23:57;;;;;;;8.55;6.65;;;22.90;89.40;;;;;;5052946;28;20076;-66
2021/08/30 10:26:36;;;;;;;7.47;6.47;;;23.00;88.00;;;;;;5052511;28;20461;-66
2021/08/30 10:29:01;;;;;;;10.10;5.90;;;23.10;87.50;;;;;;5052815;28;20100;-66
2021/08/30 10:31:27;;;;;;;7.70;6.03;;;23.10;87.40;;;;;;5034814;28;20113;-66
2021/08/30 10:33:55;;;;;;;7.13;5.40;;;23.00;87.20;;;;;;5034932;28;20410;-66
2021/08/30 10:36:22;;;;;;;9.75;5.90;;;23.10;87.30;;;;;;5034557;28;20107;-66
2021/08/30 10:39:11;;;;;;;6.53;5.38;;;23.10;86.80;;;;;;5046375;28;20116;-66
2021/08/30 10:41:44;;;;;;;5.83;5.23;;;23.00;86.70;;;;;;5030516;28;20030;-66
2021/08/30 10:44:17;;;;;;;5.93;5.05;;;22.80;86.90;;;;;;5050932;28;20279;-66
2021/08/30 10:46:56;;;;;;;8.98;6.95;;;22.70;87.10;;;;;;5018600;28;20018;-66
2021/08/30 10:49:32;;;;;;;6.88;5.78;;;22.70;86.80;;;;;;5052577;28;20022;-66
2021/08/30 10:52:10;;;;;;;7.43;6.18;;;22.70;86.90;;;;;;5048238;28;20477;-66
2021/08/30 10:54:35;;;;;;;6.03;5.18;;;23.10;86.90;;;;;;5034914;28;20469;-66
2021/08/30 10:57:03;;;;;;;7.78;5.72;;;23.40;86.20;;;;;;5052475;28;20051;-66
2021/08/30 10:59:30;;;;;;;7.35;5.70;;;23.70;84.10;;;;;;5052161;28;20032;-66
2021/08/30 11:02:03;;;;;;;6.78;5.43;;;24.00;83.30;;;;;;5034619;28;20477;-66
2021/08/30 11:04:34;;;;;;;6.68;5.68;;;24.10;82.20;;;;;;5051864;28;20051;-66
2021/08/30 11:07:00;;;;;;;9.73;5.78;;;24.00;81.30;;;;;;5030904;28;20022;-66
2021/08/30 11:09:26;;;;;;;6.43;5.22;;;24.20;81.50;;;;;;5051571;28;20070;-66
2021/08/30 11:11:52;;;;;;;6.40;5.00;;;24.40;81.10;;;;;;5052049;28;20053;-66
2021/08/30 11:14:19;;;;;;;5.40;4.45;;;24.40;80.30;;;;;;5049934;28;20524;-66
2021/08/30 11:16:52;;;;;;;5.70;5.03;;;24.50;80.40;;;;;;5043060;28;20029;-66
2021/08/30 11:19:18;;;;;;;6.28;4.90;;;24.40;80.30;;;;;;5032835;28;20079;-66
2021/08/30 11:21:50;;;;;;;6.20;4.70;;;24.30;80.50;;;;;;5036433;28;20021;-66
2021/08/30 11:24:43;;;;;;;6.10;5.30;;;24.30;80.50;;;;;;5050278;28;20025;-66
2021/08/30 11:27:14;;;;;;;5.55;4.82;;;24.20;80.40;;;;;;5042835;28;20056;-66
2021/08/30 11:29:42;;;;;;;5.00;4.50;;;24.30;80.30;;;;;;5051359;28;20020;-66
2021/08/30 11:32:08;;;;;;;5.95;4.68;;;24.30;80.00;;;;;;5031813;28;20021;-66
2021/08/30 11:34:37;;;;;;;5.15;4.28;;;24.30;79.00;;;;;;5033515;28;20481;-66
2021/08/30 11:37:05;;;;;;;5.85;4.38;;;24.20;78.70;;;;;;5051185;28;20111;-66
2021/08/30 11:39:36;;;;;;;4.90;4.03;;;24.20;78.10;;;;;;5033371;28;20025;-66
2021/08/30 11:42:05;;;;;;;6.32;4.65;;;24.00;78.00;;;;;;5044991;28;20055;-66
2021/08/30 11:44:32;;;;;;;4.93;4.43;;;23.90;78.10;;;;;;5051822;28;20471;-66
2021/08/30 11:47:01;;;;;;;5.95;4.70;;;23.90;78.40;;;;;;5052354;28;20313;-66
2021/08/30 11:49:41;;;;;;;5.30;4.30;;;24.20;78.60;;;;;;5051118;28;20455;-67
2021/08/30 11:52:08;;;;;;;5.57;4.78;;;25.20;77.70;;;;;;5052409;28;20032;-67
2021/08/30 11:54:37;;;;;;;7.53;4.15;;;26.20;76.10;;;;;;5033937;28;20158;-67
2021/08/30 11:57:07;;;;;;;5.87;4.53;;;26.60;74.10;;;;;;5051549;28;20029;-66
2021/08/30 11:59:38;;;;;;;3.55;3.25;;;26.40;72.70;;;;;;5051418;28;20547;-67
2021/08/30 12:02:05;;;;;;;5.15;3.67;;;26.20;72.50;;;;;;5054368;28;20066;-66
2021/08/30 12:04:33;;;;;;;4.88;3.90;;;26.20;73.30;;;;;;5035731;28;20366;-66
2021/08/30 12:07:11;;;;;;;5.85;4.47;;;26.10;73.60;;;;;;5038227;28;20025;-66
2021/08/30 12:09:53;;;;;;;9.67;5.47;;;26.00;74.60;;;;;;5055826;28;20021;-66
2021/08/30 12:12:27;;;;;;;6.07;4.50;;;25.90;74.40;;;;;;5038190;28;20338;-66
2021/08/30 12:15:13;;;;;;;7.28;5.47;;;26.00;75.00;;;;;;5036886;28;20068;-66
2021/08/30 12:17:45;;;;;;;6.03;4.72;;;26.10;74.00;;;;;;5038189;28;20025;-66
2021/08/30 12:20:13;;;;;;;4.85;4.10;;;26.00;74.40;;;;;;5055288;28;20547;-66
2021/08/30 12:22:45;;;;;;;4.80;3.97;;;25.90;75.30;;;;;;5037883;28;20036;-66
2021/08/30 12:25:16;;;;;;;5.25;4.28;;;25.90;75.60;;;;;;5055550;28;20029;-66
2021/08/30 12:27:47;;;;;;;5.85;3.50;;;25.80;75.70;;;;;;5055937;28;20108;-66
2021/08/30 12:30:20;;;;;;;5.80;3.92;;;25.80;75.50;;;;;;5054261;28;20013;-66
2021/08/30 12:33:10;;;;;;;4.43;3.75;;;25.90;75.00;;;;;;5035333;28;20037;-66
2021/08/30 12:35:54;;;;;;;5.00;4.03;;;26.20;74.60;;;;;;5042037;28;20129;-66
2021/08/30 12:38:25;;;;;;;4.30;3.67;;;26.50;73.40;;;;;;5019716;28;20022;-66
2021/08/30 12:41:03;;;;;;;5.45;3.80;;;26.70;72.60;;;;;;5036178;28;20053;-66
2021/08/30 12:43:30;;;;;;;4.35;3.90;;;26.70;72.10;;;;;;5053252;28;20033;-66
2021/08/30 12:45:56;;;;;;;5.20;3.63;;;26.50;71.70;;;;;;5036809;28;20440;-66
2021/08/30 12:48:24;;;;;;;4.70;3.53;;;26.30;72.00;;;;;;5054497;28;20027;-67
2021/08/30 12:50:56;;;;;;;4.13;3.58;;;26.20;72.20;;;;;;5036063;28;20092;-66